createdAt,value
2023-05-19T00:01:35.399Z,79.5984
2023-05-19T00:02:36.695Z,78.1563
2023-05-19T00:04:40.185Z,78.5324
2023-05-19T00:05:42.058Z,78.7813
2023-05-19T00:07:44.798Z,77.4777
2023-05-19T00:08:46.076Z,77.7285
2023-05-19T00:11:51.697Z,78.0071
2023-05-19T00:12:54.166Z,78.5007
2023-05-19T00:14:53.905Z,79.6735
2023-05-19T00:15:55.921Z,79.4613
2023-05-19T00:16:57.535Z,78.6953
2023-05-19T00:17:58.731Z,79.3248
2023-05-19T00:18:59.559Z,78.6545
2023-05-19T00:31:16.684Z,78.8832
2023-05-19T00:32:18.660Z,79.2411
2023-05-19T00:38:26.000Z,78.7655
2023-05-19T00:39:27.689Z,80.3481
2023-05-19T00:40:28.823Z,80.8889
2023-05-19T00:41:30.820Z,79.7759
2023-05-19T00:42:31.030Z,79.7545
2023-05-19T00:43:31.922Z,79.3868
2023-05-19T00:45:34.500Z,79.2908
2023-05-19T00:54:12.677Z,79.6265
2023-05-19T00:55:13.624Z,80.6447
2023-05-19T00:56:15.410Z,79.4509
2023-05-19T00:57:16.776Z,79.2456
2023-05-19T00:58:18.106Z,79.6853
2023-05-19T01:00:21.704Z,78.4101
2023-05-19T01:16:40.490Z,80.9249
2023-05-19T01:17:41.622Z,81.7676
2023-05-19T01:18:42.809Z,81.3598
2023-05-19T01:19:44.418Z,81.5518
2023-05-19T01:20:46.029Z,81.3635
2023-05-19T01:21:46.970Z,81.4394
2023-05-19T01:22:47.761Z,81.2725
2023-05-19T01:23:48.933Z,81.0061
2023-05-19T01:24:49.151Z,81.9368
2023-05-19T01:38:05.779Z,82.1113
2023-05-19T01:39:06.476Z,82.8394
2023-05-19T01:45:12.801Z,82.0085
2023-05-19T01:52:19.319Z,82.1717
2023-05-19T01:53:21.220Z,81.7145
2023-05-19T01:54:22.526Z,81.7724
2023-05-19T01:55:24.587Z,82.0486
2023-05-19T01:56:26.830Z,83.0824
2023-05-19T01:57:27.823Z,82.4622
2023-05-19T01:58:29.130Z,82.0074
2023-05-19T01:59:31.954Z,81.4948
2023-05-19T02:00:32.078Z,82.7703
2023-05-19T02:13:45.852Z,82.2824
2023-05-19T02:14:46.863Z,82.9030
2023-05-19T02:15:48.016Z,82.3841
2023-05-19T02:16:49.150Z,82.6618
2023-05-19T02:17:51.368Z,82.1248
2023-05-19T02:30:04.746Z,84.2793
2023-05-19T02:31:07.409Z,82.7211
2023-05-19T02:33:08.017Z,81.8783
2023-05-19T02:34:08.699Z,81.6335
2023-05-19T02:35:09.962Z,83.0718
2023-05-19T02:36:11.520Z,81.7886
2023-05-19T02:37:13.420Z,82.5945
2023-05-19T02:38:15.073Z,82.0637
2023-05-19T02:40:18.389Z,82.8142
2023-05-19T02:41:20.493Z,81.5937
2023-05-19T02:46:26.058Z,81.9650
2023-05-19T02:47:27.882Z,81.7906
2023-05-19T02:48:29.528Z,81.8940
2023-05-19T02:49:30.928Z,81.8130
2023-05-19T03:10:42.563Z,84.7015
2023-05-19T03:11:45.096Z,83.3245
2023-05-19T03:12:46.230Z,83.0083
2023-05-19T03:14:47.001Z,82.9795
2023-05-19T03:16:50.808Z,82.6459
2023-05-19T03:17:51.695Z,83.1616
2023-05-19T03:23:58.129Z,82.9102
2023-05-19T03:24:59.553Z,83.0498
2023-05-19T03:26:02.472Z,82.9090
2023-05-19T03:35:09.387Z,83.8382
2023-05-19T03:36:10.349Z,84.4788
2023-05-19T03:37:12.509Z,83.6748
2023-05-19T03:38:14.381Z,83.5260
2023-05-19T03:48:55.201Z,83.1329
2023-05-19T03:49:56.408Z,83.5899
2023-05-19T03:50:57.633Z,84.0688
2023-05-19T03:53:00.519Z,84.3902
2023-05-19T03:54:01.581Z,84.9656
2023-05-19T03:56:04.540Z,85.3231
2023-05-19T03:57:06.338Z,84.9968
2023-05-19T03:58:07.536Z,85.4818
2023-05-19T03:59:08.642Z,86.0437
2023-05-19T04:00:09.947Z,84.7517
2023-05-19T04:02:13.060Z,84.2184
2023-05-19T04:03:14.696Z,84.2005
2023-05-19T04:04:16.096Z,84.1627
2023-05-19T04:05:17.497Z,85.0843
2023-05-19T04:06:19.245Z,84.7386
2023-05-19T04:07:20.716Z,84.2854
2023-05-19T04:08:23.734Z,84.6992
2023-05-19T04:09:23.753Z,84.5969
2023-05-19T04:10:24.143Z,84.4151
2023-05-19T04:23:36.147Z,84.6840
2023-05-19T04:24:38.199Z,85.2851
2023-05-19T04:25:38.724Z,85.2320
2023-05-19T04:26:39.912Z,85.0868
2023-05-19T04:27:41.454Z,84.9293
2023-05-19T04:28:43.776Z,85.0228
2023-05-19T04:29:44.249Z,85.1386
2023-05-19T04:30:44.533Z,85.7309
2023-05-19T04:31:44.870Z,86.0476
2023-05-19T04:48:05.778Z,83.3735
2023-05-19T04:49:08.029Z,84.1080
2023-05-19T04:54:12.050Z,83.5387
2023-05-19T04:55:13.510Z,83.6939
2023-05-19T04:56:15.440Z,82.7429
2023-05-19T04:58:19.338Z,82.5093
2023-05-19T04:59:20.432Z,81.7135
2023-05-19T05:00:23.480Z,81.8652
2023-05-19T05:01:24.181Z,81.4582
2023-05-19T05:02:24.277Z,81.8566
2023-05-19T05:03:25.860Z,81.7391
2023-05-19T05:04:26.885Z,81.6444
2023-05-19T05:05:28.441Z,81.5151
2023-05-19T05:06:30.015Z,81.7888
2023-05-19T05:09:33.769Z,80.6533
2023-05-19T05:10:35.900Z,80.7895
2023-05-19T05:11:36.047Z,81.7578
2023-05-19T05:12:37.722Z,81.4141
2023-05-19T05:18:47.523Z,79.6979
2023-05-19T05:19:48.910Z,80.2168
2023-05-19T05:20:49.941Z,79.9483
2023-05-19T05:21:52.632Z,79.3833
2023-05-19T05:34:05.615Z,81.1887
2023-05-19T05:37:09.101Z,81.3208
2023-05-19T05:38:11.706Z,81.0057
2023-05-19T05:39:13.036Z,81.8779
2023-05-19T05:40:14.996Z,81.2819
2023-05-19T05:41:15.119Z,81.3403
2023-05-19T05:42:17.463Z,81.5699
2023-05-19T05:44:17.941Z,81.7739
2023-05-19T05:45:18.479Z,82.1873
2023-05-19T05:46:20.588Z,81.7611
2023-05-19T05:47:21.002Z,81.4789
2023-05-19T05:51:25.341Z,81.4346
2023-05-19T05:52:26.035Z,81.5845
2023-05-19T05:54:26.526Z,81.5940
2023-05-19T06:00:36.456Z,81.9226
2023-05-19T06:02:37.892Z,81.6070
2023-05-19T06:03:37.840Z,81.6035
2023-05-19T06:05:42.367Z,81.8966
2023-05-19T06:11:17.206Z,80.8311
2023-05-19T06:12:18.255Z,81.5252
2023-05-19T06:13:18.482Z,81.7938
2023-05-19T06:14:20.956Z,81.5900
2023-05-19T06:15:22.344Z,81.8147
2023-05-19T06:16:23.757Z,81.6149
2023-05-19T06:18:27.189Z,81.8744
2023-05-19T06:19:29.154Z,82.1743
2023-05-19T06:20:30.576Z,81.8260
2023-05-19T06:21:31.664Z,81.7885
2023-05-19T06:22:31.422Z,81.8133
2023-05-19T06:31:45.131Z,82.2355
2023-05-19T06:38:53.715Z,82.0178
2023-05-19T06:39:54.635Z,82.0406
2023-05-19T06:40:56.395Z,81.8263
2023-05-19T06:41:58.750Z,81.9465
2023-05-19T06:43:00.758Z,82.0988
2023-05-19T06:44:02.924Z,82.1270
2023-05-19T06:45:04.010Z,82.2291
2023-05-19T06:46:06.010Z,81.9672
2023-05-19T06:47:08.104Z,81.8546
2023-05-19T06:49:09.332Z,81.5274
2023-05-19T06:50:10.912Z,82.0064
2023-05-19T06:51:13.045Z,82.1337
2023-05-19T06:52:14.487Z,81.9399
2023-05-19T06:54:16.854Z,82.1600
2023-05-19T06:55:17.912Z,82.4182
2023-05-19T06:56:18.940Z,82.7949
2023-05-19T06:57:33.331Z,82.1522
2023-05-19T09:07:40.395Z,74.8236
2023-05-19T09:08:41.055Z,76.0022
2023-05-19T09:09:41.821Z,76.0749
2023-05-19T09:10:42.785Z,73.8749
2023-05-19T09:11:43.219Z,72.9480
2023-05-19T09:12:45.355Z,74.6181
2023-05-19T09:13:46.509Z,74.3496
2023-05-19T09:14:48.299Z,75.0679
2023-05-19T09:15:48.617Z,76.0528
2023-05-19T09:16:49.923Z,74.9223
2023-05-19T09:17:50.913Z,75.2264
2023-05-19T09:18:51.219Z,74.6732
2023-05-19T09:19:53.189Z,74.7735
2023-05-19T09:20:53.441Z,75.7012
2023-05-19T09:21:55.549Z,75.2369
2023-05-19T09:22:55.476Z,75.8557
2023-05-19T09:23:56.847Z,75.7551
2023-05-19T09:24:56.856Z,75.1595
2023-05-19T09:25:58.402Z,77.2043
2023-05-19T09:27:00.859Z,77.6826
2023-05-19T09:29:00.495Z,76.2007
2023-05-19T09:58:37.505Z,71.8325
2023-05-19T09:59:37.952Z,71.6600
2023-05-19T10:00:38.777Z,71.5502
2023-05-19T10:01:41.218Z,71.8176
2023-05-19T10:02:41.527Z,72.1752
2023-05-19T10:03:41.962Z,73.5326
2023-05-19T10:04:42.738Z,74.7468
2023-05-19T10:05:42.973Z,72.7057
2023-05-19T10:06:43.838Z,71.6435
2023-05-19T10:07:45.467Z,70.4167
2023-05-19T10:08:47.592Z,72.8047
2023-05-19T10:09:48.292Z,70.0251
2023-05-19T10:10:48.863Z,69.4907
2023-05-19T10:11:49.417Z,70.8232
2023-05-19T10:12:50.421Z,70.5117
2023-05-19T10:13:51.238Z,71.9120
2023-05-19T10:14:51.058Z,70.9996
2023-05-19T10:24:58.373Z,72.2639
2023-05-19T10:25:59.477Z,70.9874
2023-05-19T10:27:00.683Z,71.7478
2023-05-19T10:29:02.956Z,73.2154
2023-05-19T10:30:04.076Z,72.1380
2023-05-19T10:31:05.629Z,71.6414
2023-05-19T10:33:07.953Z,72.1141
2023-05-19T10:34:08.815Z,72.8361
2023-05-19T10:35:10.044Z,70.8342
2023-05-19T10:36:11.027Z,71.4894
2023-05-19T10:37:11.192Z,71.3842
2023-05-19T10:38:11.770Z,71.1343
2023-05-19T10:39:13.691Z,71.7632
2023-05-19T10:40:14.057Z,70.9953
2023-05-19T10:41:15.033Z,71.8930
2023-05-19T10:42:15.846Z,70.9325
2023-05-19T10:43:17.379Z,71.2765
2023-05-19T10:44:17.549Z,71.4340
2023-05-19T10:45:19.418Z,71.8155
2023-05-19T10:46:20.851Z,72.5475
2023-05-19T10:47:21.592Z,72.7800
2023-05-19T10:48:21.810Z,69.0856
2023-05-19T10:49:22.548Z,70.3185
2023-05-19T10:50:22.868Z,72.3009
2023-05-19T10:51:23.724Z,72.5885
2023-05-19T10:52:24.122Z,71.6609
2023-05-19T10:53:25.007Z,71.9164
2023-05-19T10:54:25.666Z,70.7285
2023-05-19T10:55:26.276Z,71.5359
2023-05-19T10:56:28.595Z,70.4724
2023-05-19T10:57:29.103Z,68.7972
2023-05-19T11:01:35.281Z,68.2324
2023-05-19T11:02:35.618Z,69.1985
2023-05-19T11:03:37.187Z,67.5255
2023-05-19T11:04:37.504Z,69.4958
2023-05-19T11:05:38.161Z,67.6851
2023-05-19T11:06:38.216Z,68.3212
2023-05-19T11:07:38.617Z,69.2002
2023-05-19T11:08:39.348Z,70.7540
2023-05-19T11:10:42.549Z,70.8312
2023-05-19T11:11:44.634Z,70.3434
2023-05-19T11:12:45.846Z,71.4962
2023-05-19T11:13:46.519Z,71.7159
2023-05-19T11:14:46.577Z,72.0300
2023-05-19T11:15:47.454Z,72.5196
2023-05-19T11:16:47.396Z,68.4772
2023-05-19T11:38:03.923Z,68.7286
2023-05-19T11:39:05.334Z,66.6842
2023-05-19T11:40:07.029Z,65.9636
2023-05-19T11:41:08.320Z,66.5317
2023-05-19T11:42:09.666Z,66.0686
2023-05-19T11:43:10.320Z,63.6399
2023-05-19T11:44:11.283Z,62.9714
2023-05-19T11:45:12.006Z,62.1017
2023-05-19T11:48:16.817Z,66.5835
2023-05-19T11:49:18.052Z,67.5941
2023-05-19T11:50:19.240Z,65.4641
2023-05-19T11:51:19.410Z,66.2406
2023-05-19T11:52:19.811Z,66.4097
2023-05-19T11:53:21.106Z,64.9572
2023-05-19T11:54:23.141Z,64.6526
2023-05-19T11:55:23.892Z,63.7850
2023-05-19T11:56:24.320Z,63.9987
2023-05-19T11:57:26.323Z,63.1420
2023-05-19T11:58:27.073Z,63.1367
2023-05-19T11:59:27.768Z,64.1359
2023-05-19T12:00:29.049Z,62.9342
2023-05-19T12:01:29.943Z,61.9581
2023-05-19T12:02:30.324Z,61.5585
2023-05-19T12:03:31.098Z,62.4599
2023-05-19T12:04:31.605Z,63.4952
2023-05-19T12:05:43.170Z,60.8516
2023-05-19T12:18:15.203Z,63.7290
2023-05-19T12:19:16.121Z,63.3374
2023-05-19T12:20:16.809Z,63.9685
2023-05-19T12:21:17.387Z,64.8268
2023-05-19T12:22:18.128Z,63.6511
2023-05-19T12:23:18.501Z,63.8753
2023-05-19T12:24:19.408Z,63.0506
2023-05-19T12:25:20.313Z,62.8156
2023-05-19T12:26:20.649Z,63.8895
2023-05-19T12:27:20.963Z,62.1073
2023-05-19T12:29:21.815Z,62.6426
2023-05-19T12:30:22.183Z,63.2195
2023-05-19T12:31:23.707Z,62.1662
2023-05-19T12:32:25.498Z,62.5925
2023-05-19T12:33:26.701Z,62.8365
2023-05-19T12:34:27.505Z,63.7067
2023-05-19T12:38:32.847Z,62.3105
2023-05-19T12:39:33.823Z,62.5498
2023-05-19T12:40:36.642Z,63.5558
2023-05-19T12:59:54.949Z,66.2163
2023-05-19T13:00:54.800Z,65.6105
2023-05-19T13:13:06.721Z,64.1950
2023-05-19T13:17:11.987Z,67.6407
2023-05-19T13:18:12.645Z,67.8921
2023-05-19T13:37:00.486Z,68.7314
2023-05-19T13:38:01.580Z,69.3193
2023-05-19T13:39:02.733Z,70.7928
2023-05-19T13:40:03.102Z,69.4167
2023-05-19T13:41:03.309Z,69.6567
2023-05-19T13:42:04.171Z,69.7127
2023-05-19T13:43:05.475Z,70.7561
2023-05-19T13:44:06.770Z,71.6184
2023-05-19T13:45:07.981Z,69.0910
2023-05-19T13:46:09.245Z,68.2506
2023-05-19T13:47:10.780Z,69.7599
2023-05-19T13:48:11.453Z,69.9637
2023-05-19T13:49:12.382Z,69.9250
2023-05-19T13:50:13.148Z,69.0763
2023-05-19T13:51:13.717Z,69.2344
2023-05-19T13:52:14.492Z,67.3916
2023-05-19T13:53:14.446Z,68.4891
2023-05-19T14:14:04.675Z,72.1222
2023-05-19T14:15:05.371Z,71.8856
2023-05-19T14:16:05.992Z,71.4224
2023-05-19T14:17:06.551Z,71.4141
2023-05-19T14:18:07.793Z,73.2078
2023-05-19T14:19:08.161Z,71.9511
2023-05-19T14:28:14.462Z,71.1442
2023-05-19T14:30:15.151Z,73.2002
2023-05-19T14:31:17.051Z,71.1856
2023-05-19T14:32:17.779Z,71.1812
2023-05-19T14:33:19.266Z,72.1654
2023-05-19T14:34:20.352Z,70.0568
2023-05-19T14:35:20.800Z,69.2835
2023-05-19T14:36:21.359Z,69.6959
2023-05-19T14:39:25.792Z,70.6966
2023-05-19T14:40:25.804Z,70.4993
2023-05-19T14:41:25.904Z,70.2072
2023-05-19T14:42:26.954Z,69.7970
2023-05-19T14:45:29.740Z,69.6976
2023-05-19T14:46:30.055Z,70.0453
2023-05-19T14:47:31.377Z,69.8187
2023-05-19T14:48:32.069Z,69.9159
2023-05-19T14:49:32.057Z,69.9381
2023-05-19T14:50:32.988Z,68.7142
2023-05-19T14:51:32.919Z,68.8773
2023-05-19T14:52:33.455Z,70.0375
2023-05-19T14:53:34.452Z,68.7219
2023-05-19T14:54:35.014Z,68.1796
2023-05-19T14:55:36.518Z,68.5525
2023-05-19T14:56:37.054Z,68.4763
2023-05-19T14:57:37.897Z,69.1218
2023-05-19T14:58:38.551Z,69.3203
2023-05-19T14:59:39.582Z,69.1922
2023-05-19T15:00:39.691Z,68.8388
2023-05-19T15:01:40.591Z,68.9748
2023-05-19T15:02:41.005Z,69.1376
2023-05-19T15:04:44.604Z,69.8347
2023-05-19T15:05:44.775Z,69.1392
2023-05-19T15:25:00.175Z,71.2042
2023-05-19T15:26:00.346Z,71.6375
2023-05-19T15:27:01.548Z,71.0587
2023-05-19T15:28:02.918Z,71.8215
2023-05-19T15:29:02.700Z,71.4387
2023-05-19T15:31:05.266Z,72.2632
2023-05-19T15:33:07.314Z,71.9875
2023-05-19T15:38:15.021Z,71.4652
2023-05-19T15:39:16.526Z,72.3035
2023-05-19T15:40:18.096Z,72.4317
2023-05-19T15:41:19.029Z,71.8939
2023-05-19T15:42:20.471Z,72.1729
2023-05-19T15:43:21.109Z,72.2333
2023-05-19T15:45:21.946Z,72.4191
2023-05-19T15:46:23.563Z,72.1707
2023-05-19T15:48:26.968Z,71.7350
2023-05-19T15:49:29.852Z,71.9716
2023-05-19T16:00:43.791Z,72.3452
2023-05-19T16:01:44.454Z,72.0684
2023-05-19T16:02:44.525Z,72.2199
2023-05-19T16:03:46.895Z,71.8498
2023-05-19T16:04:47.121Z,71.4494
2023-05-19T16:05:48.231Z,72.9911
2023-05-19T16:06:48.743Z,72.3818
2023-05-19T16:07:48.926Z,72.1151
2023-05-19T16:08:51.758Z,73.5031
2023-05-19T16:09:53.177Z,71.5011
2023-05-19T16:10:55.685Z,71.2031
2023-05-19T16:11:56.169Z,71.5722
2023-05-19T16:21:05.640Z,69.9856
2023-05-19T16:22:06.166Z,70.1004
2023-05-19T16:23:07.628Z,70.5084
2023-05-19T16:24:08.624Z,69.7668
2023-05-19T16:25:08.705Z,69.8340
2023-05-19T16:26:09.703Z,69.1982
2023-05-19T16:27:11.190Z,71.3842
2023-05-19T16:28:12.046Z,70.9953
2023-05-19T16:29:14.133Z,70.3737
2023-05-19T16:30:14.889Z,70.0782
2023-05-19T16:31:16.356Z,69.5203
2023-05-19T16:32:16.864Z,69.8659
2023-05-19T16:42:26.517Z,70.4064
2023-05-19T16:43:28.875Z,70.8667
2023-05-19T16:44:28.985Z,71.3105
2023-05-19T16:52:38.295Z,71.3127
2023-05-19T16:53:41.028Z,72.1995
2023-05-19T16:54:41.621Z,71.6201
2023-05-19T17:09:57.231Z,71.3499
2023-05-19T17:10:57.368Z,71.7464
2023-05-19T17:11:57.193Z,72.2395
2023-05-19T17:14:01.092Z,72.1270
2023-05-19T17:15:00.757Z,72.5807
2023-05-19T17:17:03.769Z,72.5103
2023-05-19T17:18:05.362Z,72.4802
2023-05-19T17:19:07.248Z,72.3405
2023-05-19T17:20:07.753Z,72.3290
2023-05-19T17:21:10.019Z,72.6583
2023-05-19T17:22:11.400Z,73.8308
2023-05-19T17:23:14.332Z,73.6992
2023-05-19T17:25:16.520Z,73.1576
2023-05-19T17:26:18.499Z,73.1274
2023-05-19T17:38:33.182Z,73.8014
2023-05-19T17:39:33.575Z,73.8534
2023-05-19T17:41:36.428Z,73.3508
2023-05-19T17:42:38.736Z,73.5868
2023-05-19T17:44:42.469Z,74.4640
2023-05-19T17:45:43.671Z,74.1857
2023-05-19T17:46:44.930Z,74.0989
2023-05-19T17:47:47.000Z,73.6690
2023-05-19T17:48:47.340Z,73.8508
2023-05-19T17:49:51.642Z,74.4851
2023-05-19T18:05:08.384Z,74.7075
2023-05-19T18:06:08.834Z,73.2804
2023-05-19T18:07:10.102Z,73.6182
2023-05-19T18:08:12.536Z,73.2991
2023-05-19T18:09:14.503Z,73.1196
2023-05-19T18:19:26.587Z,72.9342
2023-05-19T18:20:28.416Z,73.1852
2023-05-19T18:21:30.708Z,73.5339
2023-05-19T18:22:31.129Z,73.6160
2023-05-19T18:23:33.018Z,73.7407
2023-05-19T18:24:34.058Z,73.3672
2023-05-19T18:25:35.788Z,73.4175
2023-05-19T18:26:36.681Z,73.7557
2023-05-19T18:27:38.197Z,73.6949
2023-05-19T18:28:40.515Z,73.8429
2023-05-19T18:29:41.527Z,73.8425
2023-05-19T18:30:42.997Z,74.7502
2023-05-19T18:31:45.377Z,74.4664
2023-05-19T18:32:46.950Z,75.2720
2023-05-19T18:47:04.392Z,74.8848
2023-05-19T18:48:06.261Z,74.7190
2023-05-19T18:52:11.575Z,75.2867
2023-05-19T18:53:13.780Z,76.2771
2023-05-19T18:55:15.004Z,75.7542
2023-05-19T18:56:16.947Z,75.9398
2023-05-19T18:57:18.049Z,75.7946
2023-05-19T18:58:19.953Z,75.5848
2023-05-19T18:59:22.502Z,75.7808
2023-05-19T19:00:24.545Z,75.5153
2023-05-19T19:01:27.181Z,76.3326
2023-05-19T19:03:29.812Z,77.8266
2023-05-19T19:04:31.511Z,75.7232
2023-05-19T19:06:32.281Z,76.0341
2023-05-19T19:07:32.885Z,76.0850
2023-05-19T19:15:42.321Z,77.0979
2023-05-19T19:16:44.103Z,77.4944
2023-05-19T19:17:45.858Z,76.4733
2023-05-19T19:18:47.622Z,78.1132
2023-05-19T19:19:49.729Z,76.6112
2023-05-19T19:20:50.819Z,77.0658
2023-05-19T19:21:52.743Z,76.2745
2023-05-19T19:22:54.137Z,76.6785
2023-05-19T19:23:55.839Z,76.5288
2023-05-19T19:25:58.359Z,76.4584
2023-05-19T19:27:00.474Z,76.9671
2023-05-19T19:29:03.313Z,77.2568
2023-05-19T19:30:05.307Z,77.2678
2023-05-19T19:31:05.827Z,77.6798
2023-05-19T19:32:08.272Z,78.2202
2023-05-19T19:33:10.334Z,77.6110
2023-05-19T19:40:15.607Z,78.1291
2023-05-19T19:47:28.993Z,78.8385
2023-05-19T19:48:30.688Z,77.3892
2023-05-19T19:49:32.515Z,78.1015
2023-05-19T19:56:38.004Z,77.8866
2023-05-19T19:58:40.241Z,78.0964
2023-05-19T19:59:40.527Z,77.5614
2023-05-19T20:00:42.704Z,77.7917
2023-05-19T20:01:44.905Z,77.8415
2023-05-19T20:05:48.451Z,80.1475
2023-05-19T20:06:49.442Z,78.9570
2023-05-19T20:07:50.797Z,78.3613
2023-05-19T20:08:52.736Z,78.5450
2023-05-19T20:09:54.282Z,79.0394
2023-05-19T20:29:18.528Z,77.8709
2023-05-19T20:37:25.937Z,79.8075
2023-05-19T20:38:25.981Z,79.3118
2023-05-19T20:39:27.926Z,80.0814
2023-05-19T20:40:30.102Z,79.4640
2023-05-19T20:41:32.225Z,80.6904
2023-05-19T21:04:01.550Z,79.3383
2023-05-19T21:05:02.374Z,78.7021
2023-05-19T21:06:03.508Z,79.0103
2023-05-19T21:07:05.298Z,79.0151
2023-05-19T21:15:13.447Z,78.9867
2023-05-19T21:16:14.541Z,78.6199
2023-05-19T21:17:15.757Z,79.3540
2023-05-19T21:18:16.885Z,79.9283
2023-05-19T21:19:18.922Z,79.3547
2023-05-19T21:23:24.788Z,80.2515
2023-05-19T21:24:24.736Z,80.8435
2023-05-19T21:25:25.543Z,79.8097
2023-05-19T21:26:26.464Z,80.1200
2023-05-19T21:27:27.381Z,80.5835
2023-05-19T21:28:29.244Z,80.3920
2023-05-19T21:29:30.241Z,80.4634
2023-05-19T21:31:34.474Z,81.3250
2023-05-19T21:32:35.815Z,79.8558
2023-05-19T21:33:36.820Z,79.9301
2023-05-19T21:34:37.560Z,81.1905
2023-05-19T21:35:37.654Z,80.3615
2023-05-19T21:37:41.088Z,82.3889
2023-05-19T21:38:43.406Z,82.0072
2023-05-19T21:39:43.797Z,81.2488
2023-05-19T21:40:45.283Z,82.8183
2023-05-19T21:42:48.425Z,81.6538
2023-05-19T21:43:49.822Z,81.7077
2023-05-19T21:44:51.616Z,81.5225
2023-05-19T21:45:52.398Z,81.2361
2023-05-19T22:00:08.185Z,82.2406
2023-05-19T22:01:10.136Z,81.6280
2023-05-19T22:02:12.721Z,81.8032
2023-05-19T22:04:12.826Z,81.0975
2023-05-19T22:05:14.197Z,82.2380
2023-05-19T22:06:14.865Z,81.8884
2023-05-19T22:08:18.293Z,82.1639
2023-05-19T22:22:35.465Z,81.3117
2023-05-19T22:23:36.629Z,81.8994
2023-05-19T22:24:37.588Z,82.3834
2023-05-19T22:25:39.325Z,82.4053
2023-05-19T22:26:40.121Z,82.0243
2023-05-19T22:27:42.761Z,81.0651
2023-05-19T22:41:59.163Z,83.4620
2023-05-19T22:43:00.774Z,84.9694
2023-05-19T22:44:02.096Z,84.4937
2023-05-19T22:45:04.951Z,84.9144
2023-05-19T22:46:06.279Z,83.8746
2023-05-19T22:47:07.270Z,84.9100
2023-05-19T22:48:09.192Z,84.9337
2023-05-19T22:49:09.540Z,83.5628
2023-05-19T23:00:24.922Z,84.9884
2023-05-19T23:11:34.177Z,85.7600
2023-05-19T23:12:34.415Z,86.7998
2023-05-19T23:14:36.962Z,87.3292
2023-05-19T23:15:37.616Z,87.6711
2023-05-19T23:20:42.161Z,85.4353
2023-05-19T23:21:43.296Z,87.5843
2023-05-19T23:22:44.271Z,87.0467
2023-05-19T23:23:44.295Z,87.4315
2023-05-19T23:24:45.781Z,87.8290
2023-05-19T23:26:49.506Z,85.4491
2023-05-19T23:27:51.354Z,87.0745
2023-05-19T23:28:52.639Z,87.5360
2023-05-19T23:29:54.776Z,87.7738
2023-05-19T23:30:57.025Z,87.8319
2023-05-19T23:31:58.972Z,85.1237
2023-05-19T23:43:11.144Z,86.6426
2023-05-19T23:44:12.992Z,87.1756
2023-05-19T23:45:14.234Z,87.6591
2023-05-19T23:46:16.273Z,87.6404
2023-05-19T23:47:18.157Z,87.9145
2023-05-19T23:48:19.105Z,87.2950
2023-05-19T23:49:20.420Z,87.3265
2023-05-19T23:50:21.094Z,87.0760
2023-05-19T23:51:23.152Z,87.8400
2023-05-19T23:52:24.524Z,87.8479
2023-05-19T23:54:28.171Z,88.4371
2023-05-19T23:55:30.384Z,88.8830
2023-05-19T23:56:31.599Z,88.8479
2023-05-19T23:57:34.134Z,88.9002
2023-05-19T23:58:35.622Z,88.4350
2023-05-19T23:59:36.764Z,89.3195
